Pine Hill, Texas
Current Conditions -  °F | °C
As of 1:15 PM on Saturday 25 Oct 2014 (Local Time) from KJSO Reporting Station
Clear Clear  
Wind Chill: 80°   Ceiling: Unl
Heat Index: 81°   Visibility: 10mi
Dew Point: 60°   Wind: 5mph
Humidity: 50%   Direction: 200°SSW
Pressure: 30.17"   Gusts: NA
Location:  31.9649°N, 95.3036°W
Report Text: KJSO 251815Z AUTO 20004KT 10SM CLR 26/15 A3017 RMK AO2 T02680156
Loading
Personal Weather Stations






























Interactive Weather Map
Tropical Storm Tracking
New forecast layout! Learn more

10-Day Weather Forecast

Advertisements
Track Severe Weather on mobile